Jeffris, Wisconsin
Current Conditions -  °F | °C
As of 8:35 PM on Wednesday 22 Oct 2014 (Local Time) from KRRL Reporting Station
Clear Clear  
Wind Chill: 41°   Ceiling: Unl
Heat Index: 44°   Visibility: 10mi
Dew Point: 34°   Wind: 6mph
Humidity: 69%   Direction: 150°SSE
Pressure: 30.2"   Gusts: NA
Location:  45.3595°N, 89.45°W
Report Text: KRRL 230135Z AUTO 15005KT 10SM CLR 07/01 A3020 RMK AO2 T00660012
Loading
Personal Weather Stations






























Interactive Weather Map New forecast layout! Learn more

10-Day Weather Forecast

Advertisements
Track Severe Weather on mobile